Aérodrome :
LOGIN :

S'inscrire | Disclaimer

   EN    FR    IT 

 










Légende :    VFR   VFR Marginal   IFR   IFR Intensif   IFR Très Intensif
Visi : 
Plafond : 
>= 8 km
>= 3000ft
5 à 8 km
1000 à 3000 ft
1500m à 5 km
500 à 1000 ft
800 à 1500m
200 à 500 ft
< 800m
< 200 ft
Symboles :   Orages  Brouillard  Fortes neiges  Fortes précipitations  Vent > 20 kt
SIGMETs :   Divers  Orages  Givrage  Turbulence  Onde Orograph.  Cendres Volcan.







- Altitude de l'aérodrome : 352 ft
- Code IATA : KSD


ESOK - Karlstad

DERNIER METAR :
  • 221220Z 09014KT 1500 R03/P1500N R21/P1500N SN OVC006 M01/M02 Q1002

METARs EXPIRÉS :
  • 221150Z 10013KT 2500 -SN OVC007 M01/M02 Q1002
  • 221120Z 09012KT 4400 -SN FEW005 BKN007 M02/M02 Q1003
  • 221050Z 09012G23KT 2000 -SN FEW005 BKN007 M02/M03 Q1003
  • 221020Z 09010KT 1800 SN FEW005 SCT008 BKN012 M03/M03 Q1004
  • 220950Z 09010KT 3000 -SN OVC006 M03/M04 Q1005

TAF TAF ESOK
Valide du 22 à 12h jusqu'au 22 à 21h UTC


221130Z 2212/2221 10012G22KT 3000 -SN FEW005 BKN015
TEMPO 2212/2216 0700 SN VV006
BECMG 2217/2219 5000 -RA BR BKN003
TEMPO 2218/2221 0800 FG -DZ
Pas de NOTAMs connus pour ce terrain.



MET'MAP, la Météo Aéronautique d'un coup d'oeil ! - Copyright ORBIFLY Décembre 2007 - Disclaimer

ORBIFLY MET'MAP TEAM :

Programmation & Développement : Alexandra Zaïnal
Conception & Développement : Baudouin d'Aumeries
Co-Programmation & Développement : Marc-Olivier Méhu
Soutien technique & logistique : Manuel Goepfert

Contact : metmap@orbifly.com




SOURCES & CREDITS :

   NOAA